Time;durP1;ratioP1;P1;durP2;ratioP2;P2;SDS_P1;SDS_P2;PMS_P1;PMS_P2;Temp;Humidity;BMP_temperature;BMP_pressure;BME280_temperature;BME280_humidity;BME280_pressure;Samples;Min_cycle;Max_cycle;Signal;HPM_P1;HPM_P2
2023/04/28 00:00:48;;;;;;;0.73;0.73;;;;;;;;;;6336578;28;20296;-75
2023/04/28 00:03:54;;;;;;;1.70;0.80;;;;;;;;;;6337298;28;20293;-75
2023/04/28 00:06:59;;;;;;;0.80;0.80;;;;;;;;;;6337540;28;20295;-75
2023/04/28 00:10:06;;;;;;;0.60;0.60;;;;;;;;;;6331108;28;20292;-74
2023/04/28 00:13:13;;;;;;;0.90;0.87;;;;;;;;;;6337361;28;20288;-75
2023/04/28 00:16:18;;;;;;;1.50;0.90;;;;;;;;;;6337728;28;20305;-75
2023/04/28 00:19:24;;;;;;;1.20;1.20;;;;;;;;;;6337177;28;20292;-74
2023/04/28 00:22:30;;;;;;;0.87;0.87;;;;;;;;;;6337506;28;20292;-75
2023/04/28 00:25:35;;;;;;;0.80;0.80;;;;;;;;;;6336068;28;20301;-75
2023/04/28 00:28:41;;;;;;;1.40;0.83;;;;;;;;;;6336685;28;20289;-75
2023/04/28 00:31:46;;;;;;;1.23;0.80;;;;;;;;;;6336066;28;20289;-75
2023/04/28 00:34:52;;;;;;;0.70;0.70;;;;;;;;;;6336521;28;20301;-76
2023/04/28 00:37:57;;;;;;;3.90;0.90;;;;;;;;;;6320120;28;20480;-75
2023/04/28 00:41:02;;;;;;;0.80;0.80;;;;;;;;;;6336690;28;20277;-76
2023/04/28 00:44:09;;;;;;;1.00;0.97;;;;;;;;;;6336359;28;20364;-76
2023/04/28 00:47:14;;;;;;;0.80;0.80;;;;;;;;;;6337167;28;20287;-76
2023/04/28 00:50:19;;;;;;;0.97;0.97;;;;;;;;;;6336505;28;20297;-77
2023/04/28 00:53:26;;;;;;;2.93;0.90;;;;;;;;;;6337665;28;20292;-76
2023/04/28 00:56:31;;;;;;;0.60;0.60;;;;;;;;;;6336933;28;20295;-76
2023/04/28 00:59:38;;;;;;;1.70;0.80;;;;;;;;;;6335706;28;20293;-75
2023/04/28 01:02:47;;;;;;;0.70;0.70;;;;;;;;;;6337399;28;20595;-77
2023/04/28 01:05:52;;;;;;;1.90;0.80;;;;;;;;;;6331030;28;20348;-78
2023/04/28 01:08:58;;;;;;;3.70;0.90;;;;;;;;;;6307608;28;20293;-78
2023/04/28 01:12:03;;;;;;;0.80;0.80;;;;;;;;;;6298149;28;20368;-78
2023/04/28 01:15:30;;;;;;;1.03;0.80;;;;;;;;;;6333087;28;20599;-78
2023/04/28 01:18:35;;;;;;;1.60;0.90;;;;;;;;;;6316234;28;20300;-79
2023/04/28 01:21:41;;;;;;;0.80;0.80;;;;;;;;;;6333124;28;20291;-79
2023/04/28 01:25:03;;;;;;;0.70;0.70;;;;;;;;;;6316019;28;20297;-78
2023/04/28 01:28:08;;;;;;;0.90;0.90;;;;;;;;;;6316125;28;20251;-78
2023/04/28 01:31:14;;;;;;;0.70;0.70;;;;;;;;;;6316599;28;20329;-79
2023/04/28 01:34:19;;;;;;;1.00;1.00;;;;;;;;;;6333591;28;20593;-78
2023/04/28 01:37:24;;;;;;;1.70;0.93;;;;;;;;;;6332533;28;20369;-78
2023/04/28 01:40:32;;;;;;;0.90;0.90;;;;;;;;;;6335775;28;20321;-78
2023/04/28 01:43:37;;;;;;;0.90;0.90;;;;;;;;;;6333088;28;20297;-77
2023/04/28 01:46:42;;;;;;;1.10;1.00;;;;;;;;;;6336741;28;20490;-78
2023/04/28 01:49:48;;;;;;;1.03;1.00;;;;;;;;;;6333574;28;20299;-80
2023/04/28 01:52:54;;;;;;;0.90;0.90;;;;;;;;;;6333631;28;20299;-77
2023/04/28 01:56:01;;;;;;;0.80;0.80;;;;;;;;;;6316127;28;20294;-79
2023/04/28 01:59:06;;;;;;;2.20;1.07;;;;;;;;;;6332793;28;20300;-81
2023/04/28 02:02:11;;;;;;;0.90;0.90;;;;;;;;;;6316479;28;20408;-82
2023/04/28 02:05:17;;;;;;;1.10;1.00;;;;;;;;;;6297419;28;20300;-82
2023/04/28 02:08:24;;;;;;;0.90;0.90;;;;;;;;;;6299195;28;20301;-82
2023/04/28 02:11:31;;;;;;;0.90;0.90;;;;;;;;;;6307729;28;20286;-82
2023/04/28 02:14:36;;;;;;;1.03;1.03;;;;;;;;;;6308529;28;20296;-82
2023/04/28 02:17:41;;;;;;;1.20;1.00;;;;;;;;;;6290474;28;20300;-82
2023/04/28 02:20:46;;;;;;;0.80;0.80;;;;;;;;;;6308160;28;20544;-82
2023/04/28 02:23:52;;;;;;;1.60;1.00;;;;;;;;;;6308052;28;20295;-82
2023/04/28 02:26:58;;;;;;;0.80;0.80;;;;;;;;;;6308320;28;20305;-82
2023/04/28 02:30:06;;;;;;;1.00;1.00;;;;;;;;;;6290422;28;20575;-82
2023/04/28 02:33:11;;;;;;;0.80;0.80;;;;;;;;;;6311372;28;20301;-81
2023/04/28 02:36:17;;;;;;;0.83;0.83;;;;;;;;;;6290304;28;20295;-81
2023/04/28 02:39:25;;;;;;;1.07;0.80;;;;;;;;;;6290099;28;20307;-81
2023/04/28 02:42:35;;;;;;;2.03;1.00;;;;;;;;;;6309124;28;20295;-81
2023/04/28 02:45:40;;;;;;;0.97;0.97;;;;;;;;;;6308808;28;20323;-80
2023/04/28 02:48:45;;;;;;;0.93;0.93;;;;;;;;;;6293773;28;20296;-81
2023/04/28 02:51:50;;;;;;;1.10;1.10;;;;;;;;;;6295586;28;20289;-79
2023/04/28 02:54:56;;;;;;;4.90;1.10;;;;;;;;;;6294963;28;20288;-80
2023/04/28 02:58:03;;;;;;;1.00;1.00;;;;;;;;;;6311305;28;20291;-80
2023/04/28 03:01:12;;;;;;;1.10;1.10;;;;;;;;;;6311926;28;20615;-81
2023/04/28 03:04:17;;;;;;;1.63;0.90;;;;;;;;;;6312215;28;20307;-81
2023/04/28 03:07:23;;;;;;;3.00;0.90;;;;;;;;;;6328566;28;20288;-81
2023/04/28 03:10:28;;;;;;;2.73;0.90;;;;;;;;;;6311278;28;20295;-80
2023/04/28 03:13:35;;;;;;;1.73;1.10;;;;;;;;;;6327479;28;20504;-80
2023/04/28 03:16:41;;;;;;;1.17;0.90;;;;;;;;;;6316540;28;20284;-79
2023/04/28 03:19:46;;;;;;;2.30;1.00;;;;;;;;;;6309336;28;20310;-80
2023/04/28 03:22:52;;;;;;;3.17;0.90;;;;;;;;;;6287346;28;20289;-79
2023/04/28 03:25:57;;;;;;;5.07;1.10;;;;;;;;;;6287617;28;20288;-80
2023/04/28 03:29:05;;;;;;;0.90;0.90;;;;;;;;;;6284480;28;20571;-81
2023/04/28 03:32:12;;;;;;;0.90;0.90;;;;;;;;;;6287412;28;20265;-81
2023/04/28 03:35:17;;;;;;;1.07;1.07;;;;;;;;;;6287334;28;20304;-80
2023/04/28 03:38:23;;;;;;;1.13;1.00;;;;;;;;;;6287193;28;20297;-80
2023/04/28 03:41:28;;;;;;;4.03;1.10;;;;;;;;;;6302386;28;20292;-79
2023/04/28 03:45:04;;;;;;;0.90;0.90;;;;;;;;;;6281805;28;20309;-80
2023/04/28 03:48:11;;;;;;;0.80;0.80;;;;;;;;;;6285665;28;20305;-78
2023/04/28 03:51:17;;;;;;;0.97;0.97;;;;;;;;;;6286032;28;20293;-81
2023/04/28 03:54:22;;;;;;;1.10;1.10;;;;;;;;;;6301707;28;20292;-81
2023/04/28 03:57:27;;;;;;;0.83;0.83;;;;;;;;;;6302478;28;20582;-81
2023/04/28 04:00:35;;;;;;;2.33;1.00;;;;;;;;;;6284037;28;20304;-79
2023/04/28 04:03:40;;;;;;;1.03;1.03;;;;;;;;;;6291795;28;20296;-80
2023/04/28 04:06:46;;;;;;;1.10;1.10;;;;;;;;;;6310709;28;20288;-79
2023/04/28 04:09:51;;;;;;;1.90;0.90;;;;;;;;;;6313218;28;20312;-80
2023/04/28 04:12:56;;;;;;;1.63;1.00;;;;;;;;;;6334503;28;20291;-80
2023/04/28 04:16:03;;;;;;;1.20;1.20;;;;;;;;;;6337628;28;20288;-79
2023/04/28 04:19:08;;;;;;;1.00;1.00;;;;;;;;;;6337025;28;20300;-81
2023/04/28 04:22:20;;;;;;;1.20;0.93;;;;;;;;;;6335379;28;20292;-80
2023/04/28 04:25:25;;;;;;;0.97;0.97;;;;;;;;;;6336031;28;20297;-80
2023/04/28 04:28:32;;;;;;;0.93;0.80;;;;;;;;;;6343141;28;20294;-80
2023/04/28 04:31:39;;;;;;;1.40;1.00;;;;;;;;;;6321302;28;20295;-80
2023/04/28 04:34:45;;;;;;;1.40;0.80;;;;;;;;;;6334312;28;20327;-80
2023/04/28 04:37:50;;;;;;;1.23;1.13;;;;;;;;;;6334031;28;20292;-81
2023/04/28 04:40:56;;;;;;;2.60;1.17;;;;;;;;;;6335880;28;20424;-79
2023/04/28 04:44:01;;;;;;;0.90;0.90;;;;;;;;;;6334071;28;20299;-81
2023/04/28 04:47:14;;;;;;;1.13;1.13;;;;;;;;;;6317613;28;20276;-81
2023/04/28 04:50:20;;;;;;;1.10;1.10;;;;;;;;;;6333737;28;20302;-79
2023/04/28 04:53:25;;;;;;;1.10;1.10;;;;;;;;;;6335248;28;20296;-80
2023/04/28 04:56:32;;;;;;;2.33;0.90;;;;;;;;;;6333849;28;20288;-81
2023/04/28 04:59:38;;;;;;;1.80;1.10;;;;;;;;;;6334096;28;20553;-81
2023/04/28 05:02:49;;;;;;;3.77;1.40;;;;;;;;;;6333817;28;20298;-80
2023/04/28 05:05:55;;;;;;;0.83;0.83;;;;;;;;;;6310802;28;20289;-78
2023/04/28 05:09:27;;;;;;;0.90;0.90;;;;;;;;;;6308562;28;20313;-80
2023/04/28 05:12:33;;;;;;;1.03;1.03;;;;;;;;;;6279501;28;20498;-81
2023/04/28 05:15:38;;;;;;;2.10;1.00;;;;;;;;;;6310061;28;20305;-80
2023/04/28 05:19:01;;;;;;;1.00;1.00;;;;;;;;;;6292052;28;20473;-79
2023/04/28 05:22:06;;;;;;;1.03;1.03;;;;;;;;;;6292488;28;20346;-79
2023/04/28 05:25:13;;;;;;;1.27;1.27;;;;;;;;;;6291633;28;20304;-80
2023/04/28 05:28:20;;;;;;;0.90;0.90;;;;;;;;;;6308974;28;20563;-80
2023/04/28 05:31:30;;;;;;;5.20;1.10;;;;;;;;;;6308387;28;20311;-80
2023/04/28 05:34:37;;;;;;;4.03;1.07;;;;;;;;;;6307975;28;20301;-79
2023/04/28 05:37:43;;;;;;;0.83;0.83;;;;;;;;;;6316228;28;20302;-79
2023/04/28 05:40:49;;;;;;;0.90;0.90;;;;;;;;;;6297373;28;20537;-81
2023/04/28 05:43:55;;;;;;;5.73;1.20;;;;;;;;;;6308230;28;20356;-82
2023/04/28 05:47:00;;;;;;;2.10;0.90;;;;;;;;;;6310232;28;20305;-80
2023/04/28 05:50:09;;;;;;;1.67;0.80;;;;;;;;;;6289945;28;20581;-79
2023/04/28 05:53:14;;;;;;;1.50;0.87;;;;;;;;;;6308799;28;20306;-80
2023/04/28 05:56:20;;;;;;;0.90;0.90;;;;;;;;;;6291537;28;20445;-80
2023/04/28 05:59:27;;;;;;;4.23;0.90;;;;;;;;;;6307737;28;20293;-81
2023/04/28 06:02:34;;;;;;;1.03;1.03;;;;;;;;;;6308810;28;20314;-79
2023/04/28 06:05:41;;;;;;;1.13;1.13;;;;;;;;;;6330576;28;20553;-80
2023/04/28 06:08:47;;;;;;;3.10;1.20;;;;;;;;;;6332665;28;20281;-81
2023/04/28 06:11:52;;;;;;;1.80;1.10;;;;;;;;;;6333223;28;20331;-80
2023/04/28 06:14:58;;;;;;;2.90;0.90;;;;;;;;;;6333377;28;20577;-82
2023/04/28 06:18:04;;;;;;;0.90;0.80;;;;;;;;;;6316027;28;20289;-79
2023/04/28 06:21:11;;;;;;;0.90;0.90;;;;;;;;;;6335331;28;20297;-81
2023/04/28 06:24:17;;;;;;;1.70;0.90;;;;;;;;;;6342525;28;20308;-81
2023/04/28 06:27:24;;;;;;;0.80;0.80;;;;;;;;;;6321424;28;20289;-80
2023/04/28 06:30:30;;;;;;;3.47;1.10;;;;;;;;;;6293802;28;20296;-80
2023/04/28 06:33:35;;;;;;;1.30;1.10;;;;;;;;;;6338982;28;20468;-81
2023/04/28 06:36:42;;;;;;;3.33;1.20;;;;;;;;;;6321389;28;20606;-80
2023/04/28 06:39:47;;;;;;;4.90;0.93;;;;;;;;;;6338931;28;20301;-80
2023/04/28 06:42:53;;;;;;;0.93;0.90;;;;;;;;;;6320736;28;20464;-78
2023/04/28 06:46:06;;;;;;;0.83;0.83;;;;;;;;;;6338234;28;20292;-80
2023/04/28 06:49:11;;;;;;;1.10;1.00;;;;;;;;;;6339283;28;20479;-78
2023/04/28 06:52:20;;;;;;;1.93;1.27;;;;;;;;;;6350765;28;20286;-80
2023/04/28 06:55:37;;;;;;;1.00;1.00;;;;;;;;;;6337348;28;20300;-79
2023/04/28 06:58:42;;;;;;;0.90;0.90;;;;;;;;;;6337062;28;20293;-80
2023/04/28 07:01:47;;;;;;;3.37;1.00;;;;;;;;;;6338277;28;20300;-80
2023/04/28 07:04:53;;;;;;;1.00;1.00;;;;;;;;;;6319910;28;20325;-79
2023/04/28 07:08:00;;;;;;;0.80;0.80;;;;;;;;;;6312808;28;20290;-80
2023/04/28 07:11:05;;;;;;;1.10;1.10;;;;;;;;;;6311814;28;20290;-79
2023/04/28 07:14:12;;;;;;;1.80;1.20;;;;;;;;;;6312650;28;20298;-81
2023/04/28 07:17:17;;;;;;;1.00;1.00;;;;;;;;;;6311301;28;20282;-81
2023/04/28 07:20:22;;;;;;;0.90;0.90;;;;;;;;;;6312563;28;20357;-80
2023/04/28 07:23:30;;;;;;;2.33;0.90;;;;;;;;;;6311603;28;20286;-80
2023/04/28 07:26:35;;;;;;;1.53;1.00;;;;;;;;;;6312549;28;20282;-80
2023/04/28 07:29:41;;;;;;;6.13;1.00;;;;;;;;;;6312399;28;20294;-80
2023/04/28 07:32:46;;;;;;;0.93;0.93;;;;;;;;;;6314311;28;20294;-81
2023/04/28 07:35:51;;;;;;;0.90;0.90;;;;;;;;;;6312084;28;20290;-80
2023/04/28 07:39:00;;;;;;;1.80;1.07;;;;;;;;;;6311859;28;20298;-80
2023/04/28 07:42:05;;;;;;;2.73;0.90;;;;;;;;;;6312580;28;20302;-81
2023/04/28 07:45:11;;;;;;;1.50;0.90;;;;;;;;;;6311860;28;20298;-80
2023/04/28 07:48:17;;;;;;;0.90;0.90;;;;;;;;;;6311615;28;20299;-81
2023/04/28 07:51:22;;;;;;;3.03;0.93;;;;;;;;;;6312530;28;20305;-80
2023/04/28 07:54:28;;;;;;;0.83;0.83;;;;;;;;;;6311825;28;20478;-81
2023/04/28 07:57:34;;;;;;;0.90;0.90;;;;;;;;;;6311434;28;20296;-81
2023/04/28 08:00:39;;;;;;;1.20;1.00;;;;;;;;;;6316187;28;20333;-78
2023/04/28 08:03:45;;;;;;;6.80;1.30;;;;;;;;;;6320620;28;20357;-80
2023/04/28 08:06:50;;;;;;;1.17;1.07;;;;;;;;;;6311991;28;20466;-80
2023/04/28 08:09:57;;;;;;;1.80;0.97;;;;;;;;;;6311483;28;20286;-81
2023/04/28 08:13:02;;;;;;;1.10;1.03;;;;;;;;;;6310929;28;20294;-80
2023/04/28 08:16:08;;;;;;;2.57;1.00;;;;;;;;;;6311355;28;20318;-82
2023/04/28 08:19:13;;;;;;;3.10;1.20;;;;;;;;;;6311147;28;20299;-81
2023/04/28 08:22:18;;;;;;;1.00;1.00;;;;;;;;;;6311755;28;20589;-80
2023/04/28 08:25:25;;;;;;;5.47;1.20;;;;;;;;;;6310456;28;20315;-81
2023/04/28 08:28:32;;;;;;;0.70;0.70;;;;;;;;;;6293036;28;20287;-82
2023/04/28 08:31:38;;;;;;;1.48;1.10;;;;;;;;;;6311393;28;20294;-81
2023/04/28 08:34:43;;;;;;;0.80;0.80;;;;;;;;;;6311135;28;20294;-82
2023/04/28 08:37:48;;;;;;;1.00;1.00;;;;;;;;;;6310573;28;20287;-82
2023/04/28 08:40:55;;;;;;;0.97;0.90;;;;;;;;;;6310795;28;20362;-79
2023/04/28 08:44:00;;;;;;;1.10;1.10;;;;;;;;;;6310517;28;20311;-81
2023/04/28 08:47:08;;;;;;;1.55;1.48;;;;;;;;;;6309883;28;20270;-80
2023/04/28 08:50:14;;;;;;;4.00;1.25;;;;;;;;;;6310521;28;20294;-80
2023/04/28 08:53:23;;;;;;;2.10;1.17;;;;;;;;;;6309883;28;20291;-81
2023/04/28 08:56:33;;;;;;;1.50;1.50;;;;;;;;;;6310882;28;20290;-80
2023/04/28 08:59:40;;;;;;;1.30;1.30;;;;;;;;;;6313505;28;20290;-79
2023/04/28 09:02:46;;;;;;;5.10;1.30;;;;;;;;;;6310294;28;20475;-81
2023/04/28 09:05:51;;;;;;;1.70;1.50;;;;;;;;;;6310295;28;20290;-81
2023/04/28 09:08:56;;;;;;;1.53;1.40;;;;;;;;;;6308423;28;20292;-80
2023/04/28 09:12:04;;;;;;;1.43;1.43;;;;;;;;;;6313867;28;20278;-80
2023/04/28 09:15:11;;;;;;;1.37;1.37;;;;;;;;;;6316416;28;20321;-77
2023/04/28 09:18:17;;;;;;;1.50;1.37;;;;;;;;;;6309257;28;20301;-77
2023/04/28 09:21:22;;;;;;;1.50;1.00;;;;;;;;;;6310278;28;20598;-76
2023/04/28 09:24:28;;;;;;;1.07;1.07;;;;;;;;;;6309483;28;20298;-76
2023/04/28 09:27:35;;;;;;;1.20;1.20;;;;;;;;;;6291438;28;20298;-77
2023/04/28 09:30:40;;;;;;;2.73;1.20;;;;;;;;;;6310376;28;20290;-77
2023/04/28 09:33:57;;;;;;;1.80;1.10;;;;;;;;;;6309015;28;20291;-78
2023/04/28 09:37:16;;;;;;;1.45;1.20;;;;;;;;;;6309751;28;20479;-78
2023/04/28 09:40:21;;;;;;;2.67;1.08;;;;;;;;;;6309177;28;20362;-79
2023/04/28 09:43:32;;;;;;;1.00;1.00;;;;;;;;;;6307803;28;20298;-78
2023/04/28 09:46:37;;;;;;;0.90;0.90;;;;;;;;;;6309861;28;20427;-79
2023/04/28 09:49:55;;;;;;;1.40;1.33;;;;;;;;;;6308735;28;20290;-80
2023/04/28 09:53:02;;;;;;;2.38;1.25;;;;;;;;;;6308338;28;20297;-80
2023/04/28 09:56:08;;;;;;;1.50;1.40;;;;;;;;;;6307234;28;20279;-80
2023/04/28 09:59:15;;;;;;;11.35;1.52;;;;;;;;;;6290855;28;20511;-81
2023/04/28 10:02:22;;;;;;;1.73;1.13;;;;;;;;;;6308988;28;20270;-78
2023/04/28 10:05:48;;;;;;;3.00;1.63;;;;;;;;;;6308613;28;20302;-79
2023/04/28 10:08:54;;;;;;;4.38;1.20;;;;;;;;;;6310397;28;20451;-77
2023/04/28 10:11:59;;;;;;;3.08;1.00;;;;;;;;;;6308467;28;20286;-78
2023/04/28 10:15:07;;;;;;;1.85;0.80;;;;;;;;;;6308027;28;20295;-80
2023/04/28 10:18:14;;;;;;;1.02;1.00;;;;;;;;;;6308150;28;20295;-78
2023/04/28 10:21:20;;;;;;;3.13;1.00;;;;;;;;;;6309468;28;20290;-80
2023/04/28 10:24:29;;;;;;;2.30;1.00;;;;;;;;;;6316664;28;20287;-78
2023/04/28 10:27:34;;;;;;;2.88;1.30;;;;;;;;;;6309228;28;20295;-76
2023/04/28 10:30:42;;;;;;;1.35;1.30;;;;;;;;;;6308985;28;20289;-80
2023/04/28 10:33:47;;;;;;;1.50;1.40;;;;;;;;;;6308223;28;20293;-81
2023/04/28 10:36:54;;;;;;;1.20;0.88;;;;;;;;;;6309065;28;20294;-77
2023/04/28 10:40:32;;;;;;;1.05;1.05;;;;;;;;;;6308428;28;20294;-80
2023/04/28 10:43:38;;;;;;;0.95;0.95;;;;;;;;;;6305667;28;20286;-80
2023/04/28 10:47:01;;;;;;;3.30;1.10;;;;;;;;;;6309496;28;20290;-79
2023/04/28 10:50:10;;;;;;;8.82;1.30;;;;;;;;;;6307270;28;20290;-81
2023/04/28 10:53:16;;;;;;;4.13;1.30;;;;;;;;;;6308957;28;20314;-82
2023/04/28 10:56:25;;;;;;;1.20;1.10;;;;;;;;;;6308855;28;20562;-82
2023/04/28 10:59:30;;;;;;;0.98;0.88;;;;;;;;;;6308598;28;20290;-84
2023/04/28 11:02:44;;;;;;;1.10;0.98;;;;;;;;;;6308060;28;20590;-82
2023/04/28 11:06:20;;;;;;;1.33;0.93;;;;;;;;;;6316072;28;20314;-84
2023/04/28 11:09:49;;;;;;;1.45;1.10;;;;;;;;;;6336892;28;20473;-83
2023/04/28 11:13:30;;;;;;;1.45;1.08;;;;;;;;;;6302550;28;20293;-81
2023/04/28 11:16:50;;;;;;;0.80;0.80;;;;;;;;;;6340681;28;20293;-83
2023/04/28 11:19:58;;;;;;;0.85;0.85;;;;;;;;;;6337128;28;20298;-82
2023/04/28 11:23:05;;;;;;;3.72;1.20;;;;;;;;;;6337075;28;20293;-83
2023/04/28 11:26:10;;;;;;;1.95;0.90;;;;;;;;;;6338665;28;20273;-84
2023/04/28 11:29:15;;;;;;;1.45;0.80;;;;;;;;;;6338095;28;20318;-83
2023/04/28 11:32:28;;;;;;;3.22;0.98;;;;;;;;;;6338799;28;20270;-83
2023/04/28 11:35:43;;;;;;;6.20;1.30;;;;;;;;;;6323300;28;20327;-81
2023/04/28 11:38:48;;;;;;;2.28;1.00;;;;;;;;;;6345348;28;20302;-81
2023/04/28 11:41:54;;;;;;;3.83;1.02;;;;;;;;;;6337559;28;20301;-80
2023/04/28 11:44:59;;;;;;;3.17;0.75;;;;;;;;;;6337221;28;20298;-82
2023/04/28 11:48:22;;;;;;;1.00;0.95;;;;;;;;;;6337515;28;20301;-82
2023/04/28 11:51:38;;;;;;;0.70;0.70;;;;;;;;;;6337899;28;20570;-80
2023/04/28 11:54:44;;;;;;;1.08;0.95;;;;;;;;;;6337184;28;20301;-80
2023/04/28 11:57:49;;;;;;;0.77;0.77;;;;;;;;;;6319286;28;20420;-80
2023/04/28 12:01:10;;;;;;;4.78;1.00;;;;;;;;;;6337955;28;20286;-80
2023/04/28 12:04:26;;;;;;;2.88;0.90;;;;;;;;;;6324614;28;20615;-81
2023/04/28 12:07:42;;;;;;;3.25;2.00;;;;;;;;;;6311659;28;20579;-82
2023/04/28 12:11:09;;;;;;;1.45;1.20;;;;;;;;;;6312834;28;20282;-79
2023/04/28 12:14:14;;;;;;;2.13;0.80;;;;;;;;;;6286163;28;20304;-79
2023/04/28 12:17:25;;;;;;;1.48;0.77;;;;;;;;;;6286929;28;20276;-80
2023/04/28 12:20:37;;;;;;;5.82;1.20;;;;;;;;;;6285250;28;20298;-81
2023/04/28 12:23:45;;;;;;;4.63;0.95;;;;;;;;;;6286178;28;20548;-81
2023/04/28 12:26:50;;;;;;;0.85;0.80;;;;;;;;;;6287105;28;20304;-81
2023/04/28 12:29:57;;;;;;;1.00;1.00;;;;;;;;;;6286592;28;20303;-81
2023/04/28 12:33:03;;;;;;;2.28;0.77;;;;;;;;;;6286288;28;20290;-81
2023/04/28 12:36:11;;;;;;;1.10;1.00;;;;;;;;;;6286593;28;20291;-81
2023/04/28 12:39:18;;;;;;;1.98;0.80;;;;;;;;;;6286222;28;20299;-80
2023/04/28 12:42:23;;;;;;;0.90;0.90;;;;;;;;;;6289014;28;20298;-81
2023/04/28 12:45:30;;;;;;;0.98;0.90;;;;;;;;;;6289734;28;20356;-80
2023/04/28 12:48:35;;;;;;;2.03;0.90;;;;;;;;;;6293585;28;20590;-79
2023/04/28 12:51:40;;;;;;;1.83;1.20;;;;;;;;;;6286317;28;20294;-82
2023/04/28 12:54:47;;;;;;;2.05;1.10;;;;;;;;;;6285504;28;20374;-80
2023/04/28 12:57:52;;;;;;;1.13;1.00;;;;;;;;;;6285525;28;20531;-80
2023/04/28 13:00:57;;;;;;;1.00;1.00;;;;;;;;;;6285798;28;20604;-80
2023/04/28 13:04:03;;;;;;;6.55;1.13;;;;;;;;;;6286920;28;20487;-80
2023/04/28 13:07:09;;;;;;;0.63;0.63;;;;;;;;;;6285258;28;20295;-81
2023/04/28 13:10:17;;;;;;;0.80;0.80;;;;;;;;;;6273841;28;20466;-81
2023/04/28 13:13:22;;;;;;;1.58;0.90;;;;;;;;;;6309335;28;20479;-80
2023/04/28 13:16:29;;;;;;;0.70;0.70;;;;;;;;;;6310250;28;20299;-80
2023/04/28 13:19:34;;;;;;;0.68;0.68;;;;;;;;;;6309454;28;20302;-80
2023/04/28 13:22:40;;;;;;;2.47;1.08;;;;;;;;;;6308563;28;20290;-81
2023/04/28 13:25:47;;;;;;;0.80;0.80;;;;;;;;;;6309837;28;20471;-80
2023/04/28 13:28:52;;;;;;;7.07;0.73;;;;;;;;;;6310369;28;20291;-81
2023/04/28 13:31:57;;;;;;;1.52;0.90;;;;;;;;;;6310749;28;20294;-81
2023/04/28 13:35:02;;;;;;;1.23;0.95;;;;;;;;;;6308990;28;20294;-79
2023/04/28 13:38:08;;;;;;;3.30;0.98;;;;;;;;;;6309539;28;20346;-80
2023/04/28 13:41:15;;;;;;;0.98;0.60;;;;;;;;;;6309809;28;20271;-78
2023/04/28 13:44:20;;;;;;;0.80;0.80;;;;;;;;;;6309640;28;20374;-80
2023/04/28 13:47:25;;;;;;;7.03;1.00;;;;;;;;;;6309945;28;20439;-81
2023/04/28 13:50:30;;;;;;;1.65;0.80;;;;;;;;;;6309481;28;20287;-79
2023/04/28 13:53:37;;;;;;;0.70;0.70;;;;;;;;;;6309246;28;20291;-81
2023/04/28 13:56:44;;;;;;;1.45;0.80;;;;;;;;;;6314818;28;20286;-81
2023/04/28 13:59:49;;;;;;;1.08;1.00;;;;;;;;;;6298430;28;20601;-79
2023/04/28 14:02:54;;;;;;;0.80;0.80;;;;;;;;;;6307814;28;20297;-80
2023/04/28 14:06:00;;;;;;;1.27;0.82;;;;;;;;;;6308856;28;20314;-81
2023/04/28 14:09:06;;;;;;;0.70;0.70;;;;;;;;;;6308264;28;20298;-81
2023/04/28 14:12:14;;;;;;;1.48;0.75;;;;;;;;;;6309432;28;20295;-80
2023/04/28 14:15:19;;;;;;;1.40;0.77;;;;;;;;;;6309099;28;20290;-82
2023/04/28 14:18:24;;;;;;;2.38;0.70;;;;;;;;;;6308976;28;20559;-81
2023/04/28 14:21:30;;;;;;;0.70;0.70;;;;;;;;;;6309281;28;20305;-79
2023/04/28 14:24:35;;;;;;;4.45;1.10;;;;;;;;;;6308744;28;20295;-79
2023/04/28 14:27:42;;;;;;;8.65;1.38;;;;;;;;;;6308633;28;20290;-80
2023/04/28 14:30:48;;;;;;;5.57;0.95;;;;;;;;;;6309325;28;20303;-80
2023/04/28 14:33:54;;;;;;;0.95;0.95;;;;;;;;;;6308447;28;20298;-81
2023/04/28 14:36:59;;;;;;;3.22;1.00;;;;;;;;;;6309566;28;20298;-80
2023/04/28 14:40:05;;;;;;;1.02;1.02;;;;;;;;;;6308559;28;20287;-81
2023/04/28 14:43:13;;;;;;;4.07;1.13;;;;;;;;;;6310606;28;20470;-81
2023/04/28 14:46:21;;;;;;;0.85;0.85;;;;;;;;;;6313508;28;20298;-81
2023/04/28 14:49:27;;;;;;;0.95;0.95;;;;;;;;;;6313075;28;20227;-81
2023/04/28 14:52:32;;;;;;;0.80;0.80;;;;;;;;;;6314202;28;20287;-80
2023/04/28 14:55:38;;;;;;;0.90;0.90;;;;;;;;;;6314271;28;20310;-80
2023/04/28 14:58:44;;;;;;;1.90;1.80;;;;;;;;;;6314082;28;20290;-80
2023/04/28 15:01:50;;;;;;;1.08;1.08;;;;;;;;;;6314003;28;20306;-80
2023/04/28 15:04:56;;;;;;;1.00;1.00;;;;;;;;;;6313022;28;20294;-80
2023/04/28 15:08:02;;;;;;;1.80;1.77;;;;;;;;;;6319406;28;20282;-78
2023/04/28 15:11:07;;;;;;;2.55;2.55;;;;;;;;;;6317486;28;20282;-80
2023/04/28 15:14:14;;;;;;;2.13;2.03;;;;;;;;;;6313423;28;20310;-77
2023/04/28 15:17:19;;;;;;;1.50;1.30;;;;;;;;;;6313681;28;20298;-77
2023/04/28 15:20:25;;;;;;;1.20;1.20;;;;;;;;;;6313174;28;20566;-76
2023/04/28 15:23:33;;;;;;;1.30;1.30;;;;;;;;;;6313666;28;20286;-76
2023/04/28 15:26:38;;;;;;;1.42;1.33;;;;;;;;;;6312580;28;20314;-78
2023/04/28 15:29:45;;;;;;;1.10;1.10;;;;;;;;;;6311973;28;20290;-79
2023/04/28 15:32:51;;;;;;;1.10;1.10;;;;;;;;;;6312283;28;20302;-79
2023/04/28 15:35:56;;;;;;;1.27;1.17;;;;;;;;;;6312581;28;20346;-76
2023/04/28 15:39:01;;;;;;;1.25;1.25;;;;;;;;;;6312009;28;20587;-78
2023/04/28 15:42:06;;;;;;;0.90;0.90;;;;;;;;;;6294910;28;20294;-78
2023/04/28 15:45:14;;;;;;;2.20;1.13;;;;;;;;;;6312243;28;20286;-77
2023/04/28 15:48:20;;;;;;;1.20;1.20;;;;;;;;;;6312267;28;20299;-78
2023/04/28 15:51:25;;;;;;;2.22;2.03;;;;;;;;;;6312730;28;20290;-77
2023/04/28 15:54:30;;;;;;;1.65;1.27;;;;;;;;;;6310822;28;20290;-78
2023/04/28 15:57:36;;;;;;;2.85;1.80;;;;;;;;;;6310758;28;20294;-77
2023/04/28 16:00:44;;;;;;;1.98;1.50;;;;;;;;;;6312005;28;20342;-77
2023/04/28 16:03:50;;;;;;;1.58;1.55;;;;;;;;;;6311305;28;20302;-79
2023/04/28 16:06:57;;;;;;;2.15;1.10;;;;;;;;;;6311961;28;20578;-77
2023/04/28 16:10:02;;;;;;;1.00;1.00;;;;;;;;;;6311494;28;20602;-77
2023/04/28 16:13:12;;;;;;;1.10;1.00;;;;;;;;;;6293852;28;20290;-77
2023/04/28 16:16:18;;;;;;;0.90;0.90;;;;;;;;;;6312345;28;20314;-78
2023/04/28 16:19:24;;;;;;;1.85;1.00;;;;;;;;;;6300114;28;20294;-78
2023/04/28 16:22:30;;;;;;;1.70;1.20;;;;;;;;;;6315089;28;20290;-78
2023/04/28 16:25:35;;;;;;;1.30;1.20;;;;;;;;;;6310531;28;20384;-78
2023/04/28 16:28:41;;;;;;;1.80;1.45;;;;;;;;;;6311109;28;20290;-78
2023/04/28 16:31:47;;;;;;;1.20;1.15;;;;;;;;;;6311655;28;20298;-78
2023/04/28 16:34:52;;;;;;;1.15;1.15;;;;;;;;;;6310774;28;20474;-77
2023/04/28 16:37:58;;;;;;;8.10;1.05;;;;;;;;;;6311063;28;20291;-77
2023/04/28 16:41:03;;;;;;;1.10;1.10;;;;;;;;;;6310114;28;20266;-77
2023/04/28 16:44:08;;;;;;;1.23;1.20;;;;;;;;;;6310781;28;20379;-78
2023/04/28 16:47:15;;;;;;;1.30;1.30;;;;;;;;;;6310579;28;20271;-77
2023/04/28 16:50:21;;;;;;;1.48;1.38;;;;;;;;;;6293069;28;20294;-78
2023/04/28 16:53:26;;;;;;;1.17;1.17;;;;;;;;;;6310359;28;20386;-78
2023/04/28 16:56:33;;;;;;;1.10;1.10;;;;;;;;;;6310940;28;20295;-77
2023/04/28 16:59:38;;;;;;;1.15;1.10;;;;;;;;;;6310675;28;20294;-77
2023/04/28 17:02:44;;;;;;;3.03;1.00;;;;;;;;;;6310246;28;20544;-78
2023/04/28 17:05:51;;;;;;;1.23;1.20;;;;;;;;;;6310388;28;20290;-78
2023/04/28 17:08:57;;;;;;;1.15;1.10;;;;;;;;;;6309935;28;20289;-78
2023/04/28 17:12:03;;;;;;;1.15;1.15;;;;;;;;;;6310505;28;20290;-79
2023/04/28 17:15:10;;;;;;;1.10;1.10;;;;;;;;;;6309860;28;20289;-79
2023/04/28 17:18:16;;;;;;;1.67;1.58;;;;;;;;;;6309522;28;20371;-78
2023/04/28 17:21:21;;;;;;;1.17;1.13;;;;;;;;;;6309616;28;20393;-78
2023/04/28 17:24:27;;;;;;;0.90;0.90;;;;;;;;;;6309202;28;20298;-78
2023/04/28 17:27:32;;;;;;;1.00;1.00;;;;;;;;;;6309540;28;20298;-77
2023/04/28 17:30:38;;;;;;;0.90;0.90;;;;;;;;;;6317925;28;20279;-79
2023/04/28 17:33:47;;;;;;;1.38;1.17;;;;;;;;;;6311491;28;20290;-78
2023/04/28 17:36:52;;;;;;;0.98;0.98;;;;;;;;;;6309780;28;20294;-78
2023/04/28 17:39:57;;;;;;;0.73;0.73;;;;;;;;;;6309764;28;20305;-79
2023/04/28 17:43:03;;;;;;;0.75;0.75;;;;;;;;;;6310116;28;20574;-77
2023/04/28 17:46:26;;;;;;;1.17;0.90;;;;;;;;;;6292849;27;20571;-79
2023/04/28 17:49:31;;;;;;;2.08;1.20;;;;;;;;;;6313364;28;20294;-78
2023/04/28 17:52:37;;;;;;;2.03;0.80;;;;;;;;;;6281683;28;20505;-78
2023/04/28 17:55:42;;;;;;;1.40;1.00;;;;;;;;;;6283978;28;20295;-78
2023/04/28 17:58:48;;;;;;;3.28;1.42;;;;;;;;;;6281828;28;20298;-78
2023/04/28 18:01:55;;;;;;;2.42;1.60;;;;;;;;;;6281800;28;20314;-77
2023/04/28 18:05:01;;;;;;;3.75;1.67;;;;;;;;;;6279911;28;20300;-77
2023/04/28 18:08:07;;;;;;;3.40;1.48;;;;;;;;;;6304341;28;20334;-78
2023/04/28 18:11:12;;;;;;;5.80;2.65;;;;;;;;;;6281160;28;20267;-78
2023/04/28 18:14:18;;;;;;;18.65;3.08;;;;;;;;;;6280986;28;20298;-77
2023/04/28 18:17:24;;;;;;;2.47;1.70;;;;;;;;;;6281559;28;20283;-79
2023/04/28 18:20:30;;;;;;;9.23;1.70;;;;;;;;;;6305564;28;20274;-77
2023/04/28 18:23:35;;;;;;;6.07;2.97;;;;;;;;;;6305987;28;20290;-78
2023/04/28 18:26:41;;;;;;;3.05;2.38;;;;;;;;;;6305325;28;20299;-77
2023/04/28 18:29:46;;;;;;;4.53;2.03;;;;;;;;;;6305524;28;20306;-79
2023/04/28 18:32:53;;;;;;;1.90;1.70;;;;;;;;;;6305332;28;20295;-78
2023/04/28 18:36:03;;;;;;;4.68;1.75;;;;;;;;;;6308229;28;20295;-78
2023/04/28 18:39:11;;;;;;;7.43;2.00;;;;;;;;;;6305684;28;20294;-79
2023/04/28 18:42:16;;;;;;;3.90;2.25;;;;;;;;;;6314025;28;20294;-78